createdAt,value
2019-04-05T00:01:07.396Z,7.03
2019-04-05T00:03:37.095Z,6.99
2019-04-05T00:06:06.569Z,6.95
2019-04-05T00:08:35.983Z,6.90
2019-04-05T00:11:05.484Z,6.85
2019-04-05T00:13:34.856Z,6.79
2019-04-05T00:16:04.391Z,6.73
2019-04-05T00:18:34.165Z,6.68
2019-04-05T00:21:03.576Z,6.66
2019-04-05T00:23:32.946Z,6.69
2019-04-05T00:26:02.316Z,6.70
2019-04-05T00:28:31.793Z,6.75
2019-04-05T00:31:01.156Z,6.65
2019-04-05T00:33:30.494Z,6.58
2019-04-05T00:35:59.933Z,6.55
2019-04-05T00:38:29.307Z,6.54
2019-04-05T00:40:58.711Z,6.50
2019-04-05T00:43:28.108Z,6.55
2019-04-05T00:45:57.479Z,6.57
2019-04-05T00:48:26.877Z,6.46
2019-04-05T00:50:56.388Z,6.40
2019-04-05T00:53:26.103Z,6.42
2019-04-05T00:55:55.508Z,6.36
2019-04-05T00:58:24.883Z,6.36
2019-04-05T01:00:54.241Z,6.36
2019-04-05T01:03:23.621Z,6.33
2019-04-05T01:05:53.007Z,6.31
2019-04-05T01:08:22.541Z,6.32
2019-04-05T01:10:52.171Z,6.30
2019-04-05T01:13:22.015Z,6.20
2019-04-05T01:15:51.469Z,6.25
2019-04-05T01:18:20.887Z,6.24
2019-04-05T01:20:51.872Z,6.24
2019-04-05T01:23:22.720Z,6.13
2019-04-05T01:25:54.211Z,6.13
2019-04-05T01:28:24.669Z,6.03
2019-04-05T01:30:54.040Z,6.03
2019-04-05T01:33:23.593Z,5.98
2019-04-05T01:35:52.981Z,6.08
2019-04-05T01:38:22.337Z,3.94
2019-04-05T01:40:52.539Z,6.01
2019-04-05T01:43:22.493Z,6.00
2019-04-05T01:45:54.043Z,5.96
2019-04-05T01:48:23.202Z,5.83
2019-04-05T01:50:52.695Z,5.85
2019-04-05T01:53:22.188Z,5.80
2019-04-05T01:55:51.568Z,5.80
2019-04-05T01:58:20.908Z,5.85
2019-04-05T02:00:50.339Z,4.72
2019-04-05T02:03:19.737Z,4.72
2019-04-05T02:05:49.095Z,5.89
2019-04-05T02:08:18.511Z,5.80
2019-04-05T02:10:47.994Z,5.80
2019-04-05T02:13:17.504Z,5.76
2019-04-05T02:15:46.907Z,5.76
2019-04-05T02:18:16.296Z,5.69
2019-04-05T02:20:45.656Z,5.68
2019-04-05T02:23:15.101Z,5.68
2019-04-05T02:25:44.519Z,5.67
2019-04-05T02:28:14.859Z,4.88
2019-04-05T02:30:44.333Z,5.55
2019-04-05T02:33:13.891Z,5.51
2019-04-05T02:35:43.442Z,5.57
2019-04-05T02:38:12.987Z,5.60
2019-04-05T02:40:42.852Z,5.59
2019-04-05T02:43:15.268Z,6.23
2019-04-05T02:45:46.696Z,6.50
2019-04-05T02:48:16.644Z,6.50
2019-04-05T02:50:49.188Z,5.95
2019-04-05T02:53:20.183Z,5.95
2019-04-05T02:55:50.161Z,5.86
2019-04-05T02:58:22.809Z,5.93
2019-04-05T03:00:52.402Z,5.82
2019-04-05T03:03:21.976Z,5.70
2019-04-05T03:05:51.384Z,5.62
2019-04-05T03:08:21.853Z,5.53
2019-04-05T03:10:57.637Z,5.70
2019-04-05T03:13:29.263Z,5.66
2019-04-05T03:16:01.709Z,5.60
2019-04-05T03:18:33.588Z,5.60
2019-04-05T03:21:06.510Z,5.18
2019-04-05T03:23:38.873Z,5.18
2019-04-05T03:26:11.311Z,5.16
2019-04-05T03:28:43.358Z,5.26
2019-04-05T03:31:13.412Z,5.14
2019-04-05T03:33:43.427Z,5.03
2019-04-05T03:36:13.211Z,4.98
2019-04-05T03:38:42.688Z,4.96
2019-04-05T03:41:12.485Z,4.89
2019-04-05T03:43:42.066Z,4.88
2019-04-05T03:46:11.976Z,4.89
2019-04-05T03:48:41.397Z,4.81
2019-04-05T03:51:10.871Z,4.97
2019-04-05T03:53:40.363Z,4.92
2019-04-05T03:56:09.788Z,4.83
2019-04-05T03:58:39.175Z,4.75
2019-04-05T04:01:09.468Z,4.74
2019-04-05T04:03:39.130Z,4.69
2019-04-05T04:06:09.119Z,4.72
2019-04-05T04:08:38.605Z,4.64
2019-04-05T04:11:09.087Z,4.70
2019-04-05T04:13:39.324Z,4.64
2019-04-05T04:16:09.411Z,4.64
2019-04-05T04:18:40.201Z,4.85
2019-04-05T04:21:22.634Z,4.98
2019-04-05T04:23:52.155Z,5.15
2019-04-05T04:26:21.941Z,5.06
2019-04-05T04:28:51.524Z,5.24
2019-04-05T04:31:20.964Z,5.24
2019-04-05T04:33:50.553Z,5.45
2019-04-05T04:36:20.216Z,5.45
2019-04-05T04:38:50.747Z,5.78
2019-04-05T04:41:20.217Z,6.13
2019-04-05T04:43:49.720Z,6.35
2019-04-05T04:46:20.263Z,6.66
2019-04-05T04:48:49.811Z,6.86
2019-04-05T04:51:20.472Z,6.86
2019-04-05T04:53:49.961Z,6.89
2019-04-05T04:56:19.625Z,7.17
2019-04-05T04:58:49.130Z,7.09
2019-04-05T05:01:18.801Z,7.31
2019-04-05T05:03:48.722Z,7.66
2019-04-05T05:06:18.242Z,7.82
2019-04-05T05:08:47.655Z,8.08
2019-04-05T05:11:18.189Z,8.03
2019-04-05T05:13:47.800Z,7.88
2019-04-05T05:16:17.870Z,8.23
2019-04-05T05:18:47.311Z,8.34
2019-04-05T05:21:16.998Z,8.13
2019-04-05T05:23:46.880Z,8.44
2019-04-05T05:26:21.656Z,8.89
2019-04-05T05:28:51.350Z,9.20
2019-04-05T05:31:21.119Z,8.93
2019-04-05T05:33:50.490Z,8.91
2019-04-05T05:36:20.580Z,9.18
2019-04-05T05:38:50.508Z,9.37
2019-04-05T05:41:19.890Z,9.82
2019-04-05T05:47:52.578Z,9.17
2019-04-05T05:50:22.040Z,9.31
2019-04-05T05:52:51.553Z,9.49
2019-04-05T05:55:20.969Z,9.85
2019-04-05T05:57:54.219Z,9.94
2019-04-05T06:00:23.663Z,10.29
2019-04-05T06:02:53.076Z,10.18
2019-04-05T06:05:22.449Z,10.27
2019-04-05T06:07:51.880Z,9.87
2019-04-05T06:10:21.316Z,9.76
2019-04-05T06:12:51.511Z,9.88
2019-04-05T06:15:20.936Z,10.16
2019-04-05T06:17:50.390Z,10.07
2019-04-05T06:20:20.046Z,10.42
2019-04-05T06:22:49.531Z,10.34
2019-04-05T06:25:19.045Z,10.58
2019-04-05T06:27:48.408Z,11.01
2019-04-05T06:30:17.971Z,10.60
2019-04-05T06:32:47.312Z,10.81
2019-04-05T06:35:16.740Z,10.75
2019-04-05T06:37:46.180Z,11.08
2019-04-05T06:40:15.584Z,11.22
2019-04-05T06:42:45.057Z,11.16
2019-04-05T06:45:14.598Z,11.17
2019-04-05T06:47:44.035Z,10.81
2019-04-05T06:50:13.442Z,11.03
2019-04-05T06:52:43.427Z,11.78
2019-04-05T06:55:13.411Z,12.19
2019-04-05T06:57:42.831Z,12.07
2019-04-05T07:00:12.998Z,12.40
2019-04-05T07:02:42.487Z,12.69
2019-04-05T07:05:12.119Z,12.88
2019-04-05T07:07:41.537Z,12.78
2019-04-05T07:10:11.192Z,12.95
2019-04-05T07:12:40.603Z,12.96
2019-04-05T07:15:10.274Z,12.98
2019-04-05T07:17:39.793Z,12.73
2019-04-05T07:20:09.163Z,12.42
2019-04-05T07:22:39.580Z,12.38
2019-04-05T07:25:09.363Z,12.64
2019-04-05T07:27:38.730Z,12.54
2019-04-05T07:30:08.771Z,12.69
2019-04-05T07:32:38.546Z,12.99
2019-04-05T07:35:07.951Z,12.65
2019-04-05T07:37:37.788Z,12.68
2019-04-05T07:40:07.876Z,12.84
2019-04-05T07:42:38.060Z,12.70
2019-04-05T07:45:08.316Z,13.21
2019-04-05T07:47:37.965Z,13.02
2019-04-05T07:50:08.292Z,12.79
2019-04-05T07:52:37.849Z,12.66
2019-04-05T07:55:07.797Z,12.37
2019-04-05T07:57:37.195Z,11.60
2019-04-05T08:00:09.642Z,10.85
2019-04-05T08:02:39.039Z,10.65
2019-04-05T08:05:08.874Z,10.49
2019-04-05T08:07:41.819Z,10.44
2019-04-05T08:10:12.002Z,10.52
2019-04-05T08:12:41.962Z,10.60
2019-04-05T08:15:11.374Z,11.03
2019-04-05T08:17:40.729Z,11.28
2019-04-05T08:20:10.163Z,11.19
2019-04-05T08:22:39.567Z,11.38
2019-04-05T08:25:08.944Z,11.90
2019-04-05T08:27:38.368Z,12.07
2019-04-05T08:30:08.091Z,12.33
2019-04-05T08:32:37.480Z,12.24
2019-04-05T08:35:06.979Z,12.52
2019-04-05T08:37:36.366Z,12.28
2019-04-05T08:40:06.096Z,12.49
2019-04-05T08:42:35.509Z,13.03
2019-04-05T08:45:05.425Z,13.28
2019-04-05T08:47:34.838Z,12.67
2019-04-05T08:50:05.024Z,13.34
2019-04-05T08:52:34.450Z,13.06
2019-04-05T08:55:03.945Z,12.98
2019-04-05T08:57:33.744Z,12.90
2019-04-05T09:00:03.363Z,12.79
2019-04-05T09:02:32.752Z,12.71
2019-04-05T09:05:02.174Z,12.54
2019-04-05T09:07:31.545Z,11.92
2019-04-05T09:10:00.947Z,11.58
2019-04-05T09:12:30.450Z,11.49
2019-04-05T09:14:59.936Z,11.92
2019-04-05T09:17:29.341Z,12.37
2019-04-05T09:19:58.778Z,12.44
2019-04-05T09:22:28.704Z,11.89
2019-04-05T09:24:58.058Z,12.19
2019-04-05T09:27:27.471Z,12.64
2019-04-05T09:29:56.861Z,12.43
2019-04-05T09:32:26.192Z,12.84
2019-04-05T09:34:55.569Z,13.31
2019-04-05T09:37:24.941Z,12.95
2019-04-05T09:39:54.922Z,12.30
2019-04-05T09:42:24.327Z,12.30
2019-04-05T09:44:53.738Z,12.47
2019-04-05T09:47:23.300Z,12.34
2019-04-05T09:49:52.708Z,12.02
2019-04-05T09:52:22.209Z,11.70
2019-04-05T09:54:51.632Z,11.76
2019-04-05T09:57:21.047Z,11.82
2019-04-05T09:59:50.473Z,12.18
2019-04-05T10:02:19.921Z,12.07
2019-04-05T10:04:49.364Z,11.98
2019-04-05T10:07:18.753Z,11.81
2019-04-05T10:09:50.434Z,11.92
2019-04-05T10:12:19.256Z,12.00
2019-04-05T10:14:48.701Z,11.91
2019-04-05T10:17:18.079Z,11.93
2019-04-05T10:19:50.236Z,11.95
2019-04-05T10:22:19.884Z,11.80
2019-04-05T10:24:49.266Z,11.85
2019-04-05T10:27:24.374Z,11.84
2019-04-05T10:29:53.781Z,11.93
2019-04-05T10:32:23.274Z,11.94
2019-04-05T10:34:52.626Z,11.60
2019-04-05T10:37:21.965Z,11.40
2019-04-05T10:39:51.415Z,11.48
2019-04-05T10:42:33.879Z,11.82
2019-04-05T10:45:05.434Z,11.97
2019-04-05T10:47:34.854Z,11.92
2019-04-05T10:50:05.708Z,11.71
2019-04-05T10:52:35.071Z,11.64
2019-04-05T10:55:05.150Z,11.83
2019-04-05T10:57:34.553Z,11.12
2019-04-05T11:00:05.309Z,11.76
2019-04-05T11:02:34.719Z,11.84
2019-04-05T11:05:04.337Z,12.21
2019-04-05T11:07:35.020Z,12.39
2019-04-05T11:10:05.920Z,12.44
2019-04-05T11:12:35.310Z,12.39
2019-04-05T11:15:05.332Z,12.46
2019-04-05T11:17:35.055Z,12.42
2019-04-05T11:20:20.168Z,12.62
2019-04-05T11:30:27.015Z,12.69
2019-04-05T11:32:56.518Z,12.86
2019-04-05T11:35:26.449Z,12.74
2019-04-05T11:37:56.167Z,12.65
2019-04-05T11:40:27.061Z,12.66
2019-04-05T11:42:58.037Z,12.86
2019-04-05T11:45:33.108Z,12.57
2019-04-05T11:48:04.274Z,12.89
2019-04-05T11:50:42.457Z,12.99
2019-04-05T11:53:22.258Z,13.01
2019-04-05T11:56:21.040Z,13.02
2019-04-05T11:59:00.130Z,13.03
2019-04-05T12:08:40.324Z,13.99
2019-04-05T12:11:12.615Z,13.95
2019-04-05T12:13:43.833Z,13.90
2019-04-05T12:16:19.570Z,13.69
2019-04-05T12:18:54.416Z,13.82
2019-04-05T12:24:55.668Z,13.90
2019-04-05T12:27:25.129Z,14.22
2019-04-05T12:29:54.549Z,14.20
2019-04-05T12:32:33.665Z,14.32
2019-04-05T12:34:58.833Z,14.20
2019-04-05T12:37:28.256Z,14.16
2019-04-05T12:39:57.626Z,14.12
2019-04-05T12:42:27.065Z,14.22
2019-04-05T12:44:56.418Z,14.37
2019-04-05T12:47:25.844Z,14.21
2019-04-05T12:49:55.294Z,14.32
2019-04-05T12:52:27.350Z,14.13
2019-04-05T12:54:55.819Z,14.23
2019-04-05T12:57:25.704Z,14.41
2019-04-05T12:59:56.692Z,14.72
2019-04-05T13:02:33.360Z,14.72
2019-04-05T13:04:57.340Z,15.27
2019-04-05T13:07:26.749Z,15.75
2019-04-05T13:09:56.641Z,15.65
2019-04-05T13:12:27.022Z,15.58
2019-04-05T13:15:10.976Z,15.56
2019-04-05T13:17:31.045Z,15.85
2019-04-05T13:20:00.872Z,15.65
2019-04-05T13:22:32.239Z,15.66
2019-04-05T13:25:01.072Z,15.59
2019-04-05T13:27:30.506Z,15.36
2019-04-05T13:29:59.867Z,15.16
2019-04-05T13:32:29.306Z,15.10
2019-04-05T13:34:58.799Z,15.09
2019-04-05T13:37:28.532Z,15.30
2019-04-05T13:40:00.005Z,15.31
2019-04-05T13:42:31.914Z,15.31
2019-04-05T13:45:01.103Z,15.15
2019-04-05T13:47:32.958Z,14.80
2019-04-05T13:50:02.017Z,14.90
2019-04-05T13:52:31.438Z,14.85
2019-04-05T13:55:00.817Z,14.86
2019-04-05T13:57:30.245Z,14.80
2019-04-05T13:59:59.619Z,14.91
2019-04-05T14:02:28.997Z,14.91
2019-04-05T14:04:58.725Z,14.92
2019-04-05T14:07:28.107Z,14.85
2019-04-05T14:09:57.523Z,14.80
2019-04-05T14:12:31.213Z,14.75
2019-04-05T14:14:59.902Z,14.88
2019-04-05T14:17:29.358Z,15.17
2019-04-05T14:19:58.784Z,15.05
2019-04-05T14:22:28.148Z,15.05
2019-04-05T14:24:57.774Z,15.11
2019-04-05T14:27:27.158Z,15.16
2019-04-05T14:29:56.939Z,14.87
2019-04-05T14:32:26.305Z,14.84
2019-04-05T14:34:55.722Z,14.90
2019-04-05T14:37:25.219Z,14.83
2019-04-05T14:39:54.633Z,14.70
2019-04-05T14:42:24.428Z,14.66
2019-04-05T14:44:53.827Z,14.82
2019-04-05T14:47:23.543Z,14.99
2019-04-05T14:49:52.936Z,15.18
2019-04-05T14:52:22.293Z,15.26
2019-04-05T14:54:51.678Z,15.44
2019-04-05T14:57:21.073Z,15.29
2019-04-05T14:59:50.536Z,15.08
2019-04-05T15:02:19.931Z,15.20
2019-04-05T15:04:49.576Z,15.23
2019-04-05T15:07:20.890Z,15.31
2019-04-05T15:09:50.138Z,15.30
2019-04-05T15:12:19.582Z,15.32
2019-04-05T15:14:48.992Z,15.33
2019-04-05T15:17:18.414Z,15.22
2019-04-05T15:19:47.823Z,15.26
2019-04-05T15:22:17.259Z,15.06
2019-04-05T15:24:47.106Z,15.03
2019-04-05T15:27:17.093Z,15.06
2019-04-05T15:29:46.539Z,15.05
2019-04-05T15:32:15.885Z,14.95
2019-04-05T15:34:45.300Z,14.91
2019-04-05T15:37:16.143Z,14.81
2019-04-05T15:39:45.716Z,14.82
2019-04-05T15:42:15.175Z,14.86
2019-04-05T15:44:44.561Z,14.89
2019-04-05T15:47:13.962Z,14.90
2019-04-05T15:49:43.398Z,14.74
2019-04-05T15:52:18.550Z,14.72
2019-04-05T15:54:44.814Z,14.69
2019-04-05T15:57:14.258Z,14.64
2019-04-05T15:59:45.167Z,14.65
2019-04-05T16:02:14.884Z,14.65
2019-04-05T16:04:44.296Z,14.59
2019-04-05T16:07:13.753Z,14.63
2019-04-05T16:09:43.148Z,14.59
2019-04-05T16:12:12.538Z,14.58
2019-04-05T16:14:41.905Z,14.47
2019-04-05T16:17:12.631Z,14.42
2019-04-05T16:19:42.349Z,14.40
2019-04-05T16:22:11.768Z,14.39
2019-04-05T16:24:41.173Z,14.38
2019-04-05T16:27:10.651Z,14.22
2019-04-05T16:29:40.012Z,14.04
2019-04-05T16:32:09.418Z,13.85
2019-04-05T16:34:38.807Z,13.78
2019-04-05T16:37:08.211Z,13.74
2019-04-05T16:39:37.594Z,13.67
2019-04-05T16:42:10.095Z,13.61
2019-04-05T16:44:38.199Z,13.58
2019-04-05T16:47:07.651Z,13.53
2019-04-05T16:49:37.062Z,13.45
2019-04-05T16:52:06.619Z,13.41
2019-04-05T16:54:36.244Z,13.35
2019-04-05T16:57:05.665Z,13.28
2019-04-05T16:59:35.227Z,13.20
2019-04-05T17:02:04.582Z,13.14
2019-04-05T17:04:34.009Z,13.11
2019-04-05T17:07:03.914Z,13.05
2019-04-05T17:09:33.361Z,13.01
2019-04-05T17:12:02.827Z,12.97
2019-04-05T17:14:32.280Z,12.93
2019-04-05T17:17:01.638Z,12.91
2019-04-05T17:19:31.124Z,12.89
2019-04-05T17:22:00.627Z,12.86
2019-04-05T17:24:30.065Z,12.86
2019-04-05T17:26:59.511Z,12.80
2019-04-05T17:29:28.951Z,12.74
2019-04-05T17:31:58.344Z,12.72
2019-04-05T17:34:27.794Z,12.65
2019-04-05T17:36:57.213Z,12.59
2019-04-05T17:39:26.627Z,12.57
2019-04-05T17:41:56.032Z,12.53
2019-04-05T17:44:25.442Z,12.48
2019-04-05T17:46:54.845Z,12.43
2019-04-05T17:49:24.246Z,12.39
2019-04-05T17:51:53.717Z,12.38
2019-04-05T17:54:23.496Z,12.34
2019-04-05T17:56:53.059Z,12.33
2019-04-05T17:59:22.568Z,12.32
2019-04-05T18:01:52.158Z,12.25
2019-04-05T18:04:21.620Z,12.17
2019-04-05T18:06:51.642Z,12.15
2019-04-05T18:09:21.068Z,12.15
2019-04-05T18:11:50.455Z,12.18
2019-04-05T18:14:19.980Z,12.17
2019-04-05T18:16:49.392Z,12.17
2019-04-05T18:19:19.869Z,12.17
2019-04-05T18:21:49.296Z,12.19
2019-04-05T18:24:18.702Z,12.18
2019-04-05T18:26:48.136Z,12.22
2019-04-05T18:29:17.504Z,12.22
2019-04-05T18:31:46.915Z,12.21
2019-04-05T18:34:16.323Z,12.20
2019-04-05T18:36:46.546Z,12.20
2019-04-05T18:39:15.899Z,12.22
2019-04-05T18:41:45.389Z,12.23
2019-04-05T18:44:14.840Z,12.22
2019-04-05T18:46:44.370Z,12.27
2019-04-05T18:49:13.756Z,12.35
2019-04-05T18:51:43.253Z,12.37
2019-04-05T18:54:12.649Z,12.38
2019-04-05T18:56:42.044Z,12.37
2019-04-05T18:59:11.469Z,12.34
2019-04-05T19:01:41.248Z,12.35
2019-04-05T19:04:10.683Z,12.33
2019-04-05T19:06:40.115Z,12.30
2019-04-05T19:09:11.877Z,12.28
2019-04-05T19:11:41.009Z,12.27
2019-04-05T19:14:10.757Z,12.24
2019-04-05T19:16:40.128Z,12.21
2019-04-05T19:19:09.620Z,12.19
2019-04-05T19:21:39.037Z,12.17
2019-04-05T19:24:08.387Z,12.18
2019-04-05T19:26:37.820Z,12.18
2019-04-05T19:29:07.184Z,12.30
2019-04-05T19:49:15.834Z,11.65
2019-04-05T19:51:45.203Z,11.66
2019-04-05T19:54:14.573Z,11.65
2019-04-05T19:56:43.999Z,11.66
2019-04-05T19:59:13.398Z,11.62
2019-04-05T20:01:42.812Z,11.56
2019-04-05T20:04:12.341Z,11.56
2019-04-05T20:06:41.732Z,11.54
2019-04-05T20:09:11.105Z,11.49
2019-04-05T20:11:40.496Z,11.35
2019-04-05T20:14:09.861Z,11.16
2019-04-05T20:16:39.207Z,11.04
2019-04-05T20:19:08.633Z,10.97
2019-04-05T20:21:38.306Z,10.89
2019-04-05T20:24:14.198Z,10.82
2019-04-05T20:26:38.837Z,10.75
2019-04-05T20:29:08.449Z,10.69
2019-04-05T20:31:37.841Z,10.59
2019-04-05T20:34:07.246Z,10.51
2019-04-05T20:36:36.649Z,10.40
2019-04-05T20:39:07.304Z,10.36
2019-04-05T20:41:36.706Z,10.28
2019-04-05T20:44:06.070Z,10.22
2019-04-05T20:46:35.455Z,10.24
2019-04-05T20:49:04.920Z,10.23
2019-04-05T20:51:34.269Z,10.22
2019-04-05T20:54:03.651Z,10.21
2019-04-05T20:56:33.045Z,10.22
2019-04-05T20:59:02.483Z,10.20
2019-04-05T21:01:31.850Z,10.17
2019-04-05T21:04:01.332Z,10.15
2019-04-05T21:06:30.728Z,10.12
2019-04-05T21:09:00.142Z,10.10
2019-04-05T21:11:29.623Z,10.05
2019-04-05T21:13:58.988Z,10.03
2019-04-05T21:16:28.360Z,9.99
2019-04-05T21:18:57.812Z,9.92
2019-04-05T21:21:27.229Z,9.96
2019-04-05T21:23:56.577Z,9.93
2019-04-05T21:26:26.006Z,9.96
2019-04-05T21:28:55.352Z,9.98
2019-04-05T21:31:24.702Z,9.99
2019-04-05T21:33:54.023Z,9.92
2019-04-05T21:36:23.509Z,9.88
2019-04-05T21:38:52.886Z,9.83
2019-04-05T21:41:22.382Z,9.80
2019-04-05T21:43:51.727Z,9.81
2019-04-05T21:46:21.157Z,9.88
2019-04-05T21:48:50.573Z,9.94
2019-04-05T21:51:19.975Z,9.98
2019-04-05T21:53:49.371Z,10.00
2019-04-05T21:56:18.751Z,9.88
2019-04-05T21:58:48.234Z,9.82
2019-04-05T22:01:18.163Z,9.86
2019-04-05T22:03:47.576Z,9.97
2019-04-05T22:06:17.051Z,10.00
2019-04-05T22:08:46.468Z,10.02
2019-04-05T22:11:15.883Z,10.01
2019-04-05T22:13:45.620Z,10.05
2019-04-05T22:16:15.046Z,10.05
2019-04-05T22:18:44.469Z,10.02
2019-04-05T22:21:14.056Z,10.00
2019-04-05T22:23:43.444Z,10.01
2019-04-05T22:26:12.894Z,10.00
2019-04-05T22:28:42.291Z,9.98
2019-04-05T22:31:11.796Z,10.00
2019-04-05T22:33:41.234Z,9.97
2019-04-05T22:36:10.693Z,9.95
2019-04-05T22:38:40.109Z,9.90
2019-04-05T22:41:09.515Z,9.84
2019-04-05T22:43:38.962Z,9.79
2019-04-05T22:46:08.404Z,9.72
2019-04-05T22:48:37.939Z,9.67
2019-04-05T22:51:07.297Z,9.61
2019-04-05T22:53:36.684Z,9.57
2019-04-05T22:56:06.135Z,9.54
2019-04-05T22:58:35.573Z,9.50
2019-04-05T23:01:05.098Z,9.45
2019-04-05T23:03:34.508Z,9.41
2019-04-05T23:06:04.089Z,9.40
2019-04-05T23:08:33.493Z,9.36
2019-04-05T23:11:03.096Z,9.29
2019-04-05T23:13:32.563Z,9.23
2019-04-05T23:16:02.224Z,9.19
2019-04-05T23:18:31.707Z,9.13
2019-04-05T23:21:01.120Z,9.10
2019-04-05T23:23:30.525Z,9.10
2019-04-05T23:25:59.993Z,9.11
2019-04-05T23:28:29.563Z,9.17
2019-04-05T23:30:58.988Z,9.21
2019-04-05T23:33:28.437Z,9.20
2019-04-05T23:35:57.880Z,9.17
2019-04-05T23:38:27.274Z,9.13
2019-04-05T23:40:56.677Z,9.10
2019-04-05T23:43:26.048Z,9.04
2019-04-05T23:45:55.540Z,8.96
2019-04-05T23:48:24.956Z,8.84
2019-04-05T23:50:54.423Z,8.76
2019-04-05T23:53:23.840Z,8.71
2019-04-05T23:55:53.262Z,8.63
2019-04-05T23:58:22.685Z,8.58
